Stalldalen, Sweden

7:01 AM CET on January 29, 2015 (GMT +0100)
resident area | Change Station
CLOSE
Current Station
Personal Weather Station
Location: Ludvika, DALARNAS LäN
Elevation: 584 ft
Nearby Weather Stations

Elev 584 ft 60.13 °N, 15.18 °E | Updated 1 minute ago

Light Snow
Light Snow
33.1 °F
Feels Like 33 °F
N
0.0
Wind Variable Wind from North
Gusts 0.0 mph

Today
High -- | Low -- °F
--% Chance of Precip.
Yesterday
High -- | Low -- °F
Precip. -- in
8:21 AM 4:05 PM
Waxing Gibbous, 71% visible
Pressure 28.59 in
Visibility 3.7 miles
Clouds
Windchill 33 °F
Dew Point 31 °F
Humidity 91%
Rainfall 0.00 in
Snow Depth Not available.
UV Not available.
Pollen Not available.
Air Quality Not available.
Flu Activity Not available.
METAR ESSD 290550Z 17011KT 6000 -SN VV014 01/M00 Q0968

More Conditions Fewer Conditions

Pressure 28.59 in
Visibility 3.7 miles
Clouds
Windchill 33 °F
Dew Point 31 °F
Humidity 91%
Rainfall 0.00 in
Snow Depth Not available.
UV Not available.
Pollen Not available.
Air Quality Not available.
Flu Activity Not available.
METAR ESSD 290550Z 17011KT 6000 -SN VV014 01/M00 Q0968

More Conditions Fewer Conditions

10-Day Weather Forecast

Almanac

Astronomy

Jan. 29, 2015 Rise Set
Actual Time
Civil Twilight
Nautical Twilight
Astronomical Twilight
Moon
Length of Visible Light
Length of Day
Tomorrow will be .
, % of the Moon is Illuminated

Today's Extremes

Country Highs Country Lows

Community

WunderPhotos

Upload Photos

1,791,364 photos uploaded!

WunderBlogs® & News

Nearby

Air Quality

  Air Quality AQ Index Pollutant
Not available.

Snow Depth

Station Depth Elevation

Earthquake Activity

City Distance Mag. Time & Date
Minimum magnitude displayed is 2.5.

Coastal Water Temperatures

Place Temperature

Nearby Weather Stations